Time;durP1;ratioP1;P1;durP2;ratioP2;P2;SDS_P1;SDS_P2;PMS_P1;PMS_P2;Temp;Humidity;BMP_temperature;BMP_pressure;BME280_temperature;BME280_humidity;BME280_pressure;Samples;Min_cycle;Max_cycle;Signal;HPM_P1;HPM_P2
2022/04/25 00:01:04;;;;;;;;;;;9.70;92.20;;;;;;4995353;28;19948;-77
2022/04/25 00:03:31;;;;;;;;;;;9.60;92.30;;;;;;4987393;28;20399;-76
2022/04/25 00:05:59;;;;;;;;;;;9.50;92.80;;;;;;5052997;28;19924;-76
2022/04/25 00:08:26;;;;;;;;;;;9.40;93.30;;;;;;5018741;28;19925;-76
2022/04/25 00:10:52;;;;;;;;;;;9.40;93.70;;;;;;5027666;28;20414;-76
2022/04/25 00:13:19;;;;;;;;;;;9.30;94.20;;;;;;4981101;28;19965;-76
2022/04/25 00:15:46;;;;;;;;;;;9.30;94.80;;;;;;4998532;28;19947;-76
2022/04/25 00:18:13;;;;;;;;;;;9.20;95.20;;;;;;4981100;28;20396;-76
2022/04/25 00:20:40;;;;;;;;;;;9.20;95.70;;;;;;4993678;28;19936;-76
2022/04/25 00:23:08;;;;;;;;;;;9.20;96.10;;;;;;4992867;28;20004;-75
2022/04/25 00:25:35;;;;;;;;;;;9.10;96.70;;;;;;5004183;28;20031;-75
2022/04/25 00:28:02;;;;;;;;;;;9.10;97.30;;;;;;4990960;28;19926;-76
2022/04/25 00:30:32;;;;;;;;;;;9.10;97.70;;;;;;4985103;28;20091;-76
2022/04/25 00:32:59;;;;;;;;;;;9.00;98.00;;;;;;4982088;28;19926;-76
2022/04/25 00:35:26;;;;;;;;;;;9.00;98.50;;;;;;4981146;28;20025;-75
2022/04/25 00:37:53;;;;;;;;;;;9.00;98.90;;;;;;5000064;28;19999;-76
2022/04/25 00:40:22;;;;;;;;;;;9.00;99.10;;;;;;5003325;28;19929;-76
2022/04/25 00:42:48;;;;;;;;;;;8.90;99.50;;;;;;5001271;28;19926;-75
2022/04/25 00:45:15;;;;;;;;;;;8.80;99.90;;;;;;4976551;28;20015;-75
2022/04/25 00:47:42;;;;;;;;;;;8.80;99.90;;;;;;5006252;28;19948;-75
2022/04/25 00:50:09;;;;;;;;;;;8.70;99.90;;;;;;5003888;28;19924;-76
2022/04/25 00:52:36;;;;;;;;;;;8.70;99.90;;;;;;4985984;28;19933;-76
2022/04/25 00:55:04;;;;;;;;;;;8.70;99.90;;;;;;5044564;28;19933;-76
2022/04/25 00:57:32;;;;;;;;;;;8.60;99.90;;;;;;5004559;28;19930;-76
2022/04/25 00:59:59;;;;;;;;;;;8.60;99.90;;;;;;4990277;28;19956;-76
2022/04/25 01:02:26;;;;;;;;;;;8.60;99.90;;;;;;4983037;28;19939;-76
2022/04/25 01:04:53;;;;;;;;;;;8.60;99.90;;;;;;5050437;28;20356;-76
2022/04/25 01:07:20;;;;;;;;;;;8.50;99.90;;;;;;4979237;28;20350;-77
2022/04/25 01:09:47;;;;;;;;;;;8.50;99.90;;;;;;5026756;28;19934;-76
2022/04/25 01:12:14;;;;;;;;;;;8.50;99.90;;;;;;4982054;28;19976;-76
2022/04/25 01:14:42;;;;;;;;;;;8.40;99.90;;;;;;5046689;28;19940;-75
2022/04/25 01:17:08;;;;;;;;;;;8.40;99.90;;;;;;4992781;28;19931;-76
2022/04/25 01:19:35;;;;;;;;;;;8.40;99.90;;;;;;4980078;28;20024;-76
2022/04/25 01:22:03;;;;;;;;;;;8.40;99.90;;;;;;4999852;28;19930;-76
2022/04/25 01:27:19;;;;;;;;;;;8.30;99.90;;;;;;5007715;28;19970;-76
2022/04/25 01:29:47;;;;;;;;;;;8.30;99.90;;;;;;5019316;28;20300;-79
2022/04/25 01:32:14;;;;;;;;;;;8.30;99.90;;;;;;4999339;28;19925;-76
2022/04/25 01:34:40;;;;;;;;;;;8.30;99.90;;;;;;4975958;28;19973;-76
2022/04/25 01:37:07;;;;;;;;;;;8.20;99.90;;;;;;5030086;28;19962;-76
2022/04/25 01:39:37;;;;;;;;;;;8.30;99.90;;;;;;4974541;28;19985;-78
2022/04/25 01:42:04;;;;;;;;;;;8.20;99.90;;;;;;5088690;28;19970;-75
2022/04/25 01:44:31;;;;;;;;;;;8.20;99.90;;;;;;5012029;28;19930;-75
2022/04/25 01:46:57;;;;;;;;;;;8.10;99.90;;;;;;4987604;28;19924;-76
2022/04/25 01:49:24;;;;;;;;;;;8.10;99.90;;;;;;5056048;28;19977;-76
2022/04/25 01:51:51;;;;;;;;;;;8.10;99.90;;;;;;5000338;28;19938;-76
2022/04/25 01:54:19;;;;;;;;;;;8.10;99.90;;;;;;5008917;28;20298;-75
2022/04/25 01:56:47;;;;;;;;;;;8.10;99.90;;;;;;4986653;28;19926;-76
2022/04/25 01:59:14;;;;;;;;;;;8.00;99.90;;;;;;5035922;28;20298;-75
2022/04/25 02:01:40;;;;;;;;;;;8.00;99.90;;;;;;5001817;28;19926;-75
2022/04/25 02:04:07;;;;;;;;;;;8.00;99.90;;;;;;4992795;28;19926;-76
2022/04/25 02:06:34;;;;;;;;;;;8.00;99.90;;;;;;4992071;28;19926;-76
2022/04/25 02:09:01;;;;;;;;;;;8.00;99.90;;;;;;5025939;28;19931;-76
2022/04/25 02:11:28;;;;;;;;;;;8.00;99.90;;;;;;4995742;28;19926;-75
2022/04/25 02:13:56;;;;;;;;;;;7.90;99.90;;;;;;4989855;28;19925;-76
2022/04/25 02:16:22;;;;;;;;;;;7.90;99.90;;;;;;4979082;28;20000;-76
2022/04/25 02:18:49;;;;;;;;;;;7.90;99.90;;;;;;4993527;28;19930;-75
2022/04/25 02:21:16;;;;;;;;;;;7.80;99.90;;;;;;4985905;28;20021;-75
2022/04/25 02:23:43;;;;;;;;;;;7.80;99.90;;;;;;4980724;28;20373;-76
2022/04/25 02:26:10;;;;;;;;;;;7.80;99.90;;;;;;4985387;28;20305;-77
2022/04/25 02:28:38;;;;;;;;;;;7.70;99.90;;;;;;4990736;28;20000;-78
2022/04/25 02:31:07;;;;;;;;;;;7.70;99.90;;;;;;4993515;28;19934;-77
2022/04/25 02:33:34;;;;;;;;;;;7.70;99.90;;;;;;5002847;28;20323;-77
2022/04/25 02:36:04;;;;;;;;;;;7.60;99.90;;;;;;4998446;28;19930;-76
2022/04/25 02:38:37;;;;;;;;;;;7.60;99.90;;;;;;4987445;28;19926;-76
2022/04/25 02:41:08;;;;;;;;;;;7.50;99.90;;;;;;4986041;28;20105;-76
2022/04/25 02:43:36;;;;;;;;;;;7.50;99.90;;;;;;5024703;28;19948;-76
2022/04/25 02:46:03;;;;;;;;;;;7.50;99.90;;;;;;4993802;28;20038;-76
2022/04/25 02:48:31;;;;;;;;;;;7.40;99.90;;;;;;5003713;28;20311;-76
2022/04/25 02:50:59;;;;;;;;;;;7.40;99.90;;;;;;4986282;28;19926;-76
2022/04/25 02:53:26;;;;;;;;;;;7.40;99.90;;;;;;4986601;28;19926;-76
2022/04/25 02:55:53;;;;;;;;;;;7.40;99.90;;;;;;5000993;28;19934;-76
2022/04/25 02:58:20;;;;;;;;;;;7.40;99.90;;;;;;5005474;28;20020;-76
2022/04/25 03:00:47;;;;;;;;;;;7.40;99.90;;;;;;4987254;28;19987;-75
2022/04/25 03:03:13;;;;;;;;;;;7.40;99.90;;;;;;4992270;28;20016;-75
2022/04/25 03:05:43;;;;;;;;;;;7.40;99.90;;;;;;5024192;28;19986;-75
2022/04/25 03:08:09;;;;;;;;;;;7.30;99.90;;;;;;4996546;28;20312;-76
2022/04/25 03:10:36;;;;;;;;;;;7.30;99.90;;;;;;4996930;28;19932;-76
2022/04/25 03:13:03;;;;;;;;;;;7.30;99.90;;;;;;4992942;28;20362;-76
2022/04/25 03:15:30;;;;;;;;;;;7.20;99.90;;;;;;4994436;28;19972;-76
2022/04/25 03:17:56;;;;;;;;;;;7.20;99.90;;;;;;4986673;28;19965;-76
2022/04/25 03:20:23;;;;;;;;;;;7.10;99.90;;;;;;5002177;28;20024;-76
2022/04/25 03:22:51;;;;;;;;;;;7.20;99.90;;;;;;4983137;28;19926;-76
2022/04/25 03:25:18;;;;;;;;;;;7.20;99.90;;;;;;4984816;28;19926;-76
2022/04/25 03:27:44;;;;;;;;;;;7.30;99.90;;;;;;5003030;28;20428;-77
2022/04/25 03:30:11;;;;;;;;;;;7.30;99.90;;;;;;4988483;28;19934;-76
2022/04/25 03:32:38;;;;;;;;;;;7.30;99.90;;;;;;4998137;28;19932;-76
2022/04/25 03:35:05;;;;;;;;;;;7.20;99.90;;;;;;4990547;28;20020;-75
2022/04/25 03:37:32;;;;;;;;;;;7.20;99.90;;;;;;5017102;28;19933;-76
2022/04/25 03:40:00;;;;;;;;;;;7.20;99.90;;;;;;4986681;28;20012;-75
2022/04/25 03:42:27;;;;;;;;;;;7.20;99.90;;;;;;4987447;28;19926;-75
2022/04/25 03:44:54;;;;;;;;;;;7.20;99.90;;;;;;5023634;28;19924;-76
2022/04/25 03:47:21;;;;;;;;;;;7.20;99.90;;;;;;5008264;28;20485;-77
2022/04/25 03:49:48;;;;;;;;;;;7.20;99.90;;;;;;4990560;28;20008;-76
2022/04/25 03:52:14;;;;;;;;;;;7.20;99.90;;;;;;5005092;28;20016;-76
2022/04/25 03:57:26;;;;;;;;;;;7.20;99.90;;;;;;4988635;28;20000;-76
2022/04/25 03:59:53;;;;;;;;;;;7.10;99.90;;;;;;4989659;28;19926;-75
2022/04/25 04:02:20;;;;;;;;;;;7.10;99.90;;;;;;4999972;28;19979;-76
2022/04/25 04:04:46;;;;;;;;;;;7.10;99.90;;;;;;4988219;28;20411;-76
2022/04/25 04:07:13;;;;;;;;;;;7.00;99.90;;;;;;4991165;28;19926;-75
2022/04/25 04:09:46;;;;;;;;;;;7.00;99.90;;;;;;4989223;28;19925;-76
2022/04/25 04:12:13;;;;;;;;;;;6.90;99.90;;;;;;4981107;28;19972;-75
2022/04/25 04:14:41;;;;;;;;;;;6.90;99.90;;;;;;4990583;28;19933;-75
2022/04/25 04:17:08;;;;;;;;;;;6.80;99.90;;;;;;5001410;28;20024;-75
2022/04/25 04:19:36;;;;;;;;;;;6.80;99.90;;;;;;4990485;28;20492;-75
2022/04/25 04:22:03;;;;;;;;;;;6.70;99.90;;;;;;5007976;28;19926;-75
2022/04/25 04:24:31;;;;;;;;;;;6.70;99.90;;;;;;4990862;28;19933;-75
2022/04/25 04:27:01;;;;;;;;;;;6.70;99.90;;;;;;4996745;28;19925;-75
2022/04/25 04:29:28;;;;;;;;;;;6.70;99.90;;;;;;4995677;28;20012;-76
2022/04/25 04:31:56;;;;;;;;;;;6.70;99.90;;;;;;4996036;28;20300;-75
2022/04/25 04:34:23;;;;;;;;;;;6.80;99.90;;;;;;5005909;28;20411;-75
2022/04/25 04:36:50;;;;;;;;;;;6.80;99.90;;;;;;5000830;28;20024;-75
2022/04/25 04:39:17;;;;;;;;;;;6.70;99.90;;;;;;4998426;28;19980;-75
2022/04/25 04:41:44;;;;;;;;;;;6.70;99.90;;;;;;4985121;28;20024;-75
2022/04/25 04:44:10;;;;;;;;;;;6.70;99.90;;;;;;4992924;28;19930;-77
2022/04/25 04:46:37;;;;;;;;;;;6.70;99.90;;;;;;4992397;28;19969;-77
2022/04/25 04:49:05;;;;;;;;;;;6.70;99.90;;;;;;5007720;28;19926;-77
2022/04/25 04:51:32;;;;;;;;;;;6.80;99.90;;;;;;4974676;28;19930;-76
2022/04/25 04:53:59;;;;;;;;;;;6.80;99.90;;;;;;5031065;28;19940;-76
2022/04/25 04:56:26;;;;;;;;;;;6.80;99.90;;;;;;4986537;28;20505;-76
2022/04/25 04:58:54;;;;;;;;;;;6.90;99.90;;;;;;4979068;28;20033;-76
2022/04/25 05:01:20;;;;;;;;;;;6.90;99.90;;;;;;4987748;28;20149;-76
2022/04/25 05:03:47;;;;;;;;;;;6.90;99.90;;;;;;5081877;28;19930;-78
2022/04/25 05:06:15;;;;;;;;;;;6.90;99.90;;;;;;4986366;28;20468;-76
2022/04/25 05:08:42;;;;;;;;;;;6.90;99.90;;;;;;4974719;28;19926;-76
2022/04/25 05:11:10;;;;;;;;;;;6.90;99.90;;;;;;4991323;28;19932;-76
2022/04/25 05:13:37;;;;;;;;;;;7.00;99.90;;;;;;4983075;28;20335;-76
2022/04/25 05:16:03;;;;;;;;;;;7.00;99.90;;;;;;4979193;28;20029;-76
2022/04/25 05:18:32;;;;;;;;;;;7.00;99.90;;;;;;5018673;28;19924;-76
2022/04/25 05:20:59;;;;;;;;;;;7.00;99.90;;;;;;4979694;28;19926;-76
2022/04/25 05:23:27;;;;;;;;;;;7.00;99.90;;;;;;4985700;28;19943;-76
2022/04/25 05:25:54;;;;;;;;;;;7.00;99.90;;;;;;4990222;28;19926;-76
2022/04/25 05:28:21;;;;;;;;;;;7.10;99.90;;;;;;4986754;28;19944;-76
2022/04/25 05:30:48;;;;;;;;;;;7.20;99.90;;;;;;4982782;28;20016;-76
2022/04/25 05:33:17;;;;;;;;;;;7.30;99.90;;;;;;4976375;28;20265;-76
2022/04/25 05:35:44;;;;;;;;;;;7.30;99.90;;;;;;4980920;28;20036;-76
2022/04/25 05:38:11;;;;;;;;;;;7.40;99.90;;;;;;4979899;28;19932;-76
2022/04/25 05:40:40;;;;;;;;;;;7.50;99.90;;;;;;4979498;28;19933;-76
2022/04/25 05:43:07;;;;;;;;;;;7.60;99.90;;;;;;4981542;28;19933;-76
2022/04/25 05:45:34;;;;;;;;;;;7.60;99.90;;;;;;4983197;28;19930;-76
2022/04/25 05:51:58;;;;;;;;;;;7.70;99.90;;;;;;4975292;28;19933;-77
2022/04/25 05:53:32;;;;;;;;;;;7.90;99.90;;;;;;4980868;28;19937;-75
2022/04/25 05:56:00;;;;;;;;;;;8.00;99.90;;;;;;4983245;28;19925;-75
2022/04/25 05:58:27;;;;;;;;;;;8.10;99.90;;;;;;4982698;28;19934;-76
2022/04/25 06:00:54;;;;;;;;;;;8.20;99.90;;;;;;4980425;28;19972;-75
2022/04/25 06:03:20;;;;;;;;;;;8.20;99.90;;;;;;4977904;28;19971;-75
2022/04/25 06:05:47;;;;;;;;;;;8.20;99.90;;;;;;4985342;28;19937;-75
2022/04/25 06:08:14;;;;;;;;;;;8.20;99.90;;;;;;4982041;28;20382;-75
2022/04/25 06:10:41;;;;;;;;;;;8.30;99.90;;;;;;4993366;28;19926;-74
2022/04/25 06:13:09;;;;;;;;;;;8.30;99.90;;;;;;4988002;28;19927;-75
2022/04/25 06:15:36;;;;;;;;;;;8.40;99.90;;;;;;4984964;28;19930;-77
2022/04/25 06:18:03;;;;;;;;;;;8.50;99.90;;;;;;4976166;28;19991;-76
2022/04/25 06:20:30;;;;;;;;;;;8.70;99.90;;;;;;4978589;28;20044;-74
2022/04/25 06:22:58;;;;;;;;;;;8.90;99.90;;;;;;4990600;28;19926;-77
2022/04/25 06:25:24;;;;;;;;;;;9.10;99.90;;;;;;4982647;28;20300;-76
2022/04/25 06:27:51;;;;;;;;;;;9.30;99.90;;;;;;4987050;28;19930;-73
2022/04/25 06:30:23;;;;;;;;;;;9.50;99.90;;;;;;4978153;28;19926;-76
2022/04/25 06:32:50;;;;;;;;;;;9.70;99.90;;;;;;5015548;28;19926;-75
2022/04/25 06:35:33;;;;;;;;;;;9.80;99.90;;;;;;4989425;28;20161;-75
2022/04/25 06:38:00;;;;;;;;;;;10.00;99.90;;;;;;4984792;28;19932;-77
2022/04/25 06:40:27;;;;;;;;;;;10.30;99.90;;;;;;4977751;28;19940;-75
2022/04/25 06:42:55;;;;;;;;;;;10.50;99.90;;;;;;4982465;28;19933;-74
2022/04/25 06:45:23;;;;;;;;;;;10.50;99.90;;;;;;5003519;28;19977;-79
2022/04/25 06:47:50;;;;;;;;;;;10.70;99.90;;;;;;4988611;28;19926;-79
2022/04/25 06:50:17;;;;;;;;;;;10.90;99.90;;;;;;4982479;28;19933;-81
2022/04/25 06:52:45;;;;;;;;;;;11.00;99.90;;;;;;4980089;28;19930;-80
2022/04/25 06:55:11;;;;;;;;;;;10.80;99.90;;;;;;4987214;28;19926;-83
2022/04/25 06:57:38;;;;;;;;;;;11.10;99.90;;;;;;4988180;28;19926;-78
2022/04/25 07:00:08;;;;;;;;;;;11.50;99.90;;;;;;4979950;28;20477;-78
2022/04/25 07:02:36;;;;;;;;;;;11.80;99.50;;;;;;4984807;28;19933;-78
2022/04/25 07:05:04;;;;;;;;;;;12.00;98.00;;;;;;4984739;28;19982;-78
2022/04/25 07:07:31;;;;;;;;;;;11.70;98.00;;;;;;4983683;28;19926;-78
2022/04/25 07:09:58;;;;;;;;;;;11.20;98.60;;;;;;4984635;28;19925;-80
2022/04/25 07:12:24;;;;;;;;;;;11.30;99.90;;;;;;4980500;28;20303;-80
2022/04/25 07:14:51;;;;;;;;;;;11.20;98.90;;;;;;4982730;28;19925;-76
2022/04/25 07:17:18;;;;;;;;;;;10.80;99.90;;;;;;4986826;28;20021;-82
2022/04/25 07:19:46;;;;;;;;;;;10.60;99.90;;;;;;4985425;28;20016;-80
2022/04/25 07:30:25;;;;;;;;;;;10.20;99.90;;;;;;4984250;28;19964;-78
2022/04/25 07:32:52;;;;;;;;;;;10.80;99.90;;;;;;4983348;28;19969;-79
2022/04/25 07:35:21;;;;;;;;;;;11.20;98.90;;;;;;4980209;28;19925;-77
2022/04/25 07:37:48;;;;;;;;;;;11.20;98.70;;;;;;4975110;28;20008;-79
2022/04/25 07:40:15;;;;;;;;;;;11.20;98.60;;;;;;4985596;28;19925;-76
2022/04/25 07:42:42;;;;;;;;;;;11.10;98.60;;;;;;4989358;28;19926;-78
2022/04/25 07:45:09;;;;;;;;;;;10.40;99.40;;;;;;4978682;28;19926;-77
2022/04/25 07:47:36;;;;;;;;;;;10.40;99.90;;;;;;4985103;28;19925;-77
2022/04/25 07:50:03;;;;;;;;;;;10.20;99.90;;;;;;4972404;28;20016;-77
2022/04/25 07:52:31;;;;;;;;;;;10.10;99.90;;;;;;4972130;28;19926;-78
2022/04/25 07:54:58;;;;;;;;;;;10.40;99.90;;;;;;4983705;28;19936;-77
2022/04/25 07:57:24;;;;;;;;;;;10.80;98.90;;;;;;4975237;28;20363;-78
2022/04/25 07:59:51;;;;;;;;;;;10.80;98.60;;;;;;4986437;28;20290;-78
2022/04/25 08:02:18;;;;;;;;;;;11.20;98.30;;;;;;4972171;28;20316;-80
2022/04/25 08:04:46;;;;;;;;;;;11.30;97.40;;;;;;4972752;28;20209;-78
2022/04/25 08:07:12;;;;;;;;;;;11.70;96.40;;;;;;4978083;28;20012;-79
2022/04/25 08:09:41;;;;;;;;;;;12.00;94.70;;;;;;4988981;28;20342;-77
2022/04/25 08:20:21;;;;;;;;;;;13.00;92.10;;;;;;4983210;28;20549;-78
2022/04/25 08:22:47;;;;;;;;;;;11.90;93.70;;;;;;4979266;28;20393;-77
2022/04/25 08:25:16;;;;;;;;;;;11.90;93.70;;;;;;4975725;28;20111;-79
2022/04/25 08:27:43;;;;;;;;;;;11.80;94.10;;;;;;4970741;28;19949;-77
2022/04/25 08:30:11;;;;;;;;;;;11.40;93.70;;;;;;4973062;28;20029;-77
2022/04/25 08:32:38;;;;;;;;;;;11.20;95.00;;;;;;4981891;28;19933;-82
2022/04/25 08:35:05;;;;;;;;;;;11.30;93.10;;;;;;4981916;28;20017;-78
2022/04/25 08:37:32;;;;;;;;;;;11.50;93.60;;;;;;4978911;28;19926;-79
2022/04/25 08:39:58;;;;;;;;;;;12.60;92.40;;;;;;4978179;28;19925;-78
2022/04/25 08:42:26;;;;;;;;;;;12.50;89.00;;;;;;4981871;28;19936;-77
2022/04/25 08:44:53;;;;;;;;;;;11.70;91.70;;;;;;4972433;28;19930;-78
2022/04/25 08:47:22;;;;;;;;;;;11.30;92.20;;;;;;4976866;28;19930;-78
2022/04/25 08:49:48;;;;;;;;;;;11.30;93.10;;;;;;4983271;28;19934;-81
2022/04/25 08:52:15;;;;;;;;;;;11.60;91.60;;;;;;4984220;28;20012;-79
2022/04/25 08:54:42;;;;;;;;;;;12.00;91.30;;;;;;4975089;28;19932;-79
2022/04/25 08:57:10;;;;;;;;;;;12.10;88.90;;;;;;4979485;28;20047;-79
2022/04/25 08:59:38;;;;;;;;;;;12.20;89.40;;;;;;4977183;28;20016;-76
2022/04/25 09:02:05;;;;;;;;;;;12.00;90.20;;;;;;4986153;28;20345;-79
2022/04/25 09:04:32;;;;;;;;;;;11.80;88.90;;;;;;4983534;28;19949;-78
2022/04/25 09:06:59;;;;;;;;;;;12.30;88.00;;;;;;4985909;28;19975;-79
2022/04/25 09:09:26;;;;;;;;;;;12.50;86.40;;;;;;4997853;28;19934;-78
2022/04/25 09:12:13;;;;;;;;;;;12.20;88.10;;;;;;4992058;28;19926;-79
2022/04/25 09:14:43;;;;;;;;;;;11.60;90.70;;;;;;5016249;28;19926;-79
2022/04/25 09:17:10;;;;;;;;;;;11.10;91.30;;;;;;4990399;28;19930;-78
2022/04/25 09:19:37;;;;;;;;;;;11.20;91.60;;;;;;4978153;28;19926;-77
2022/04/25 09:22:04;;;;;;;;;;;11.20;92.00;;;;;;4974654;28;19932;-78
2022/04/25 09:24:32;;;;;;;;;;;11.40;91.50;;;;;;4994752;28;20357;-80
2022/04/25 09:27:10;;;;;;;;;;;11.20;91.20;;;;;;4979363;28;19934;-76
2022/04/25 09:29:37;;;;;;;;;;;11.40;90.60;;;;;;4977789;28;19934;-79
2022/04/25 09:32:06;;;;;;;;;;;11.50;90.60;;;;;;4978425;28;19983;-78
2022/04/25 09:37:18;;;;;;;;;;;11.30;88.80;;;;;;4979186;28;19940;-79
2022/04/25 09:39:45;;;;;;;;;;;11.60;87.90;;;;;;4973544;28;19926;-79
2022/04/25 09:42:12;;;;;;;;;;;11.40;85.50;;;;;;4978528;28;20025;-81
2022/04/25 09:44:54;;;;;;;;;;;11.40;87.60;;;;;;4977318;28;20036;-78
2022/04/25 09:47:29;;;;;;;;;;;11.40;89.00;;;;;;4972743;28;20385;-78
2022/04/25 09:49:59;;;;;;;;;;;11.00;89.20;;;;;;4970512;28;19926;-82
2022/04/25 09:52:26;;;;;;;;;;;10.80;90.80;;;;;;4975687;28;19958;-79
2022/04/25 09:54:53;;;;;;;;;;;10.80;92.70;;;;;;4981550;28;19930;-78
2022/04/25 09:57:28;;;;;;;;;;;10.60;94.80;;;;;;4984043;28;19932;-77
2022/04/25 09:59:56;;;;;;;;;;;10.70;99.90;;;;;;4972872;28;20926;-74
2022/04/25 10:02:23;;;;;;;;;;;10.10;99.90;;;;;;4970423;28;19934;-75
2022/04/25 10:04:51;;;;;;;;;;;9.90;99.90;;;;;;4977025;28;19925;-73
2022/04/25 10:07:18;;;;;;;;;;;9.30;99.90;;;;;;4977675;28;19933;-72
2022/04/25 10:09:46;;;;;;;;;;;9.10;99.90;;;;;;4974136;28;19926;-76
2022/04/25 10:12:13;;;;;;;;;;;9.10;99.90;;;;;;4976322;28;20392;-73
2022/04/25 10:14:40;;;;;;;;;;;9.30;99.90;;;;;;4977638;28;19926;-73
2022/04/25 10:17:07;;;;;;;;;;;9.40;99.90;;;;;;4981561;28;19932;-73
2022/04/25 10:19:34;;;;;;;;;;;9.50;99.90;;;;;;4975096;28;19944;-74
2022/04/25 10:22:02;;;;;;;;;;;9.90;99.90;;;;;;4982216;28;19932;-74
2022/04/25 10:24:28;;;;;;;;;;;10.30;99.90;;;;;;4979518;28;20227;-74
2022/04/25 10:26:57;;;;;;;;;;;10.70;99.90;;;;;;4982279;28;19926;-75
2022/04/25 10:29:27;;;;;;;;;;;11.00;99.90;;;;;;4977941;28;19988;-73
2022/04/25 10:31:57;;;;;;;;;;;11.20;99.90;;;;;;4976917;28;20381;-72
2022/04/25 10:34:44;;;;;;;;;;;11.40;99.90;;;;;;4979021;28;20033;-73
2022/04/25 10:37:26;;;;;;;;;;;11.70;99.90;;;;;;4992247;28;19926;-73
2022/04/25 10:39:55;;;;;;;;;;;12.00;99.90;;;;;;4977438;28;19976;-73
2022/04/25 10:45:06;;;;;;;;;;;12.60;99.90;;;;;;4974396;28;19953;-73
2022/04/25 10:47:33;;;;;;;;;;;12.80;99.90;;;;;;4978448;28;19969;-74
2022/04/25 10:50:02;;;;;;;;;;;13.00;99.90;;;;;;4979784;28;19926;-74
2022/04/25 10:55:38;;;;;;;;;;;13.20;99.90;;;;;;4980562;28;19937;-75
2022/04/25 10:58:15;;;;;;;;;;;13.40;99.20;;;;;;4974733;28;19949;-75
2022/04/25 11:00:46;;;;;;;;;;;13.60;98.90;;;;;;4981978;28;19932;-76
2022/04/25 11:03:14;;;;;;;;;;;13.60;97.30;;;;;;4974366;28;19926;-75
2022/04/25 11:05:41;;;;;;;;;;;13.50;97.80;;;;;;4985252;28;19933;-72
2022/04/25 11:08:37;;;;;;;;;;;13.10;97.50;;;;;;4984355;28;20020;-75
2022/04/25 11:11:20;;;;;;;;;;;12.90;98.90;;;;;;5010275;28;19933;-75
2022/04/25 11:14:07;;;;;;;;;;;12.70;98.50;;;;;;4989262;28;19930;-81
2022/04/25 11:16:33;;;;;;;;;;;12.50;98.60;;;;;;4979716;28;19934;-74
2022/04/25 11:19:08;;;;;;;;;;;11.90;99.90;;;;;;4985534;28;19924;-73
2022/04/25 11:21:34;;;;;;;;;;;11.30;99.70;;;;;;4981967;28;19934;-73
2022/04/25 11:24:02;;;;;;;;;;;10.90;99.90;;;;;;4973736;28;20385;-75
2022/04/25 11:26:47;;;;;;;;;;;10.90;99.90;;;;;;4994584;28;19961;-75
2022/04/25 11:29:15;;;;;;;;;;;10.80;99.90;;;;;;4979576;28;19933;-76
2022/04/25 11:31:42;;;;;;;;;;;10.80;99.90;;;;;;4979820;28;20274;-75
2022/04/25 11:34:11;;;;;;;;;;;10.70;99.90;;;;;;4971214;28;19926;-75
2022/04/25 11:36:39;;;;;;;;;;;10.80;99.90;;;;;;4981823;28;19926;-77
2022/04/25 11:41:50;;;;;;;;;;;11.10;99.90;;;;;;4994921;28;20291;-75
2022/04/25 11:44:18;;;;;;;;;;;11.20;99.90;;;;;;4982186;28;20021;-76
2022/04/25 11:46:47;;;;;;;;;;;11.30;99.90;;;;;;4987811;28;19925;-74
2022/04/25 11:49:13;;;;;;;;;;;11.40;99.90;;;;;;4975376;28;19934;-75
2022/04/25 11:51:42;;;;;;;;;;;11.50;99.90;;;;;;4982370;28;19971;-75
2022/04/25 11:54:09;;;;;;;;;;;11.60;99.90;;;;;;4987801;28;19926;-74
2022/04/25 11:56:37;;;;;;;;;;;11.60;99.90;;;;;;4981502;28;19926;-75
2022/04/25 11:59:06;;;;;;;;;;;11.70;99.90;;;;;;4984619;28;19933;-75
2022/04/25 12:01:36;;;;;;;;;;;11.70;99.90;;;;;;4982180;28;19926;-77
2022/04/25 12:04:15;;;;;;;;;;;11.80;99.90;;;;;;4979765;28;19926;-76
2022/04/25 12:06:46;;;;;;;;;;;12.00;99.90;;;;;;4970426;28;20033;-76
2022/04/25 12:17:38;;;;;;;;;;;12.50;99.90;;;;;;4960974;28;20303;-75
2022/04/25 12:20:05;;;;;;;;;;;12.70;99.90;;;;;;4989558;28;19955;-76
2022/04/25 12:22:31;;;;;;;;;;;12.80;99.90;;;;;;4980114;28;19977;-76
2022/04/25 12:25:11;;;;;;;;;;;12.80;99.90;;;;;;4986502;28;20014;-74
2022/04/25 12:27:38;;;;;;;;;;;12.60;99.90;;;;;;4982935;28;19936;-75
2022/04/25 12:30:06;;;;;;;;;;;12.40;99.90;;;;;;4984886;28;19948;-76
2022/04/25 12:32:32;;;;;;;;;;;12.40;99.90;;;;;;4981968;28;19941;-78
2022/04/25 12:35:01;;;;;;;;;;;12.60;99.90;;;;;;4983834;28;19965;-77
2022/04/25 12:37:27;;;;;;;;;;;12.80;99.40;;;;;;4985209;28;19934;-75
2022/04/25 12:40:00;;;;;;;;;;;12.70;97.70;;;;;;4995983;28;19999;-76
2022/04/25 12:42:42;;;;;;;;;;;12.60;98.50;;;;;;4973202;28;19969;-75
2022/04/25 12:45:09;;;;;;;;;;;12.70;99.00;;;;;;4980495;28;19941;-75
2022/04/25 12:47:36;;;;;;;;;;;12.50;98.10;;;;;;4977808;28;19934;-74
2022/04/25 12:50:04;;;;;;;;;;;12.40;96.90;;;;;;4990361;28;19929;-76
2022/04/25 12:52:45;;;;;;;;;;;12.50;97.30;;;;;;4975979;28;19947;-76
2022/04/25 12:55:14;;;;;;;;;;;12.40;96.60;;;;;;4969716;28;19934;-74
2022/04/25 12:57:49;;;;;;;;;;;12.50;96.40;;;;;;4981223;28;19930;-75
2022/04/25 13:00:16;;;;;;;;;;;12.60;97.20;;;;;;4972450;28;19969;-75
2022/04/25 13:02:43;;;;;;;;;;;12.60;96.90;;;;;;4985191;28;19937;-75
2022/04/25 13:05:12;;;;;;;;;;;12.60;97.70;;;;;;4986223;28;19969;-75
2022/04/25 13:07:39;;;;;;;;;;;12.60;97.80;;;;;;4971767;28;20396;-75
2022/04/25 13:10:07;;;;;;;;;;;12.70;98.80;;;;;;4977531;28;20004;-76
2022/04/25 13:12:34;;;;;;;;;;;12.80;98.60;;;;;;4982675;28;20297;-76
2022/04/25 13:15:01;;;;;;;;;;;12.80;96.20;;;;;;4984759;28;19939;-77
2022/04/25 13:17:28;;;;;;;;;;;12.90;94.60;;;;;;4991603;28;19983;-78
2022/04/25 13:19:55;;;;;;;;;;;12.80;93.50;;;;;;4983953;28;20369;-76
2022/04/25 13:22:23;;;;;;;;;;;12.60;94.20;;;;;;4981199;28;20484;-76
2022/04/25 13:24:50;;;;;;;;;;;12.50;94.50;;;;;;4981366;28;19949;-75
2022/04/25 13:27:17;;;;;;;;;;;12.60;94.80;;;;;;5017793;28;19978;-80
2022/04/25 13:29:44;;;;;;;;;;;12.60;94.30;;;;;;4984037;28;19926;-77
2022/04/25 13:32:12;;;;;;;;;;;12.70;94.80;;;;;;4988300;28;19933;-76
2022/04/25 13:34:39;;;;;;;;;;;12.90;95.40;;;;;;4987431;28;19940;-77
2022/04/25 13:37:06;;;;;;;;;;;12.90;95.90;;;;;;4983493;28;19924;-78
2022/04/25 13:39:34;;;;;;;;;;;12.90;96.40;;;;;;4983416;28;20374;-80
2022/04/25 13:42:01;;;;;;;;;;;13.00;96.70;;;;;;5008113;28;20441;-77
2022/04/25 13:44:28;;;;;;;;;;;13.00;96.30;;;;;;4986079;28;19926;-78
2022/04/25 13:46:55;;;;;;;;;;;13.00;95.30;;;;;;4999257;28;19948;-77
2022/04/25 13:49:22;;;;;;;;;;;12.90;94.80;;;;;;4976613;28;20289;-77
2022/04/25 13:51:49;;;;;;;;;;;13.00;95.40;;;;;;4984391;28;19930;-78
2022/04/25 13:54:16;;;;;;;;;;;13.20;95.90;;;;;;4980600;28;19934;-76
2022/04/25 13:56:44;;;;;;;;;;;13.20;95.50;;;;;;4989077;28;20497;-79
2022/04/25 13:59:11;;;;;;;;;;;13.20;95.80;;;;;;4977460;28;20389;-77
2022/04/25 14:01:38;;;;;;;;;;;13.20;96.00;;;;;;4984087;28;20350;-76
2022/04/25 14:04:05;;;;;;;;;;;13.30;96.20;;;;;;4979091;28;19926;-77
2022/04/25 14:06:32;;;;;;;;;;;13.40;97.00;;;;;;4974493;28;20635;-77
2022/04/25 14:09:01;;;;;;;;;;;13.60;97.10;;;;;;4984042;28;19926;-81
2022/04/25 14:11:29;;;;;;;;;;;13.60;96.70;;;;;;4979162;28;19941;-78
2022/04/25 14:13:58;;;;;;;;;;;13.60;96.40;;;;;;4977104;28;19927;-74
2022/04/25 14:16:25;;;;;;;;;;;13.50;95.90;;;;;;4970835;28;19932;-75
2022/04/25 14:18:52;;;;;;;;;;;13.30;96.20;;;;;;4982631;28;19932;-76
2022/04/25 14:21:19;;;;;;;;;;;13.30;96.10;;;;;;4972585;28;19961;-75
2022/04/25 14:23:46;;;;;;;;;;;13.40;96.00;;;;;;4978412;28;19973;-80
2022/04/25 14:26:13;;;;;;;;;;;13.40;96.10;;;;;;4975764;28;20296;-74
2022/04/25 14:28:40;;;;;;;;;;;13.40;95.40;;;;;;4971490;28;20095;-74
2022/04/25 14:31:08;;;;;;;;;;;13.40;95.80;;;;;;4970646;28;19934;-75
2022/04/25 14:33:35;;;;;;;;;;;13.40;96.30;;;;;;4974714;28;19934;-75
2022/04/25 14:36:03;;;;;;;;;;;13.60;96.40;;;;;;4976379;28;19973;-75
2022/04/25 14:38:30;;;;;;;;;;;13.40;96.10;;;;;;4972701;28;19953;-76
2022/04/25 14:40:57;;;;;;;;;;;13.40;96.40;;;;;;4975999;28;20148;-76
2022/04/25 14:43:25;;;;;;;;;;;13.40;96.50;;;;;;4972889;28;19934;-76
2022/04/25 14:45:55;;;;;;;;;;;13.50;97.00;;;;;;4983111;28;19949;-76
2022/04/25 14:48:23;;;;;;;;;;;13.70;96.90;;;;;;4971169;28;19933;-75
2022/04/25 14:56:21;;;;;;;;;;;14.30;94.40;;;;;;4977212;28;19972;-76
2022/04/25 14:58:47;;;;;;;;;;;14.30;94.70;;;;;;4981340;28;19965;-75
2022/04/25 15:01:14;;;;;;;;;;;14.20;94.60;;;;;;4981055;28;19925;-76
2022/04/25 15:03:42;;;;;;;;;;;14.20;94.70;;;;;;4983297;28;19932;-75
2022/04/25 15:06:09;;;;;;;;;;;14.50;93.70;;;;;;4974264;28;19929;-75
2022/04/25 15:08:38;;;;;;;;;;;14.50;93.40;;;;;;4981200;28;19926;-75
2022/04/25 15:11:05;;;;;;;;;;;14.50;92.60;;;;;;4976221;28;20034;-76
2022/04/25 15:13:32;;;;;;;;;;;14.30;92.60;;;;;;4977670;28;19986;-76
2022/04/25 15:16:03;;;;;;;;;;;14.00;92.30;;;;;;4984590;28;19938;-74
2022/04/25 15:18:30;;;;;;;;;;;13.40;89.00;;;;;;4985019;28;19963;-77